Home > Products > Valid Products > TAF

000
FTUS44 KHUN 201120
TAFHSV
TAF
KHSV 201120Z 2012/2112 00000KT P6SM SKC
     FM201800 VRB05KT P6SM SCT060
     FM210000 14003KT P6SM BKN060 BKN250=



000
FTUS44 KHUN 201120
TAFMSL
TAF
KMSL 201120Z 2012/2112 00000KT P6SM SKC
     FM201800 VRB05KT P6SM SCT060
     FM210000 14003KT P6SM BKN060 BKN250=



000
FTUS44 KHUN 200521
TAFHSV
TAF
KHSV 200521Z 2006/2106 00000KT P6SM SKC
     FM201800 VRB05KT P6SM SCT030
     FM210000 VRB03KT P6SM SCT250=



000
FTUS44 KHUN 200521
TAFMSL
TAF
KMSL 200521Z 2006/2106 00000KT P6SM SKC
     FM201800 VRB05KT P6SM SCT030
     FM210000 VRB03KT P6SM SCT250=



000
FTUS44 KHUN 192320
TAFMSL
TAF
KMSL 192320Z 2000/2024 VRB03KT P6SM SKC
     FM201800 23005KT P6SM SCT030=



000
FTUS44 KHUN 192320
TAFHSV
TAF
KHSV 192320Z 2000/2024 VRB03KT P6SM SKC
     FM201800 VRB05KT P6SM SCT030=



000
FTUS44 KHUN 191730
TAFMSL
TAF
KMSL 191730Z 1918/2018 06010G18KT P6SM SKC
     FM200000 09005KT P6SM SKC
     FM201400 12005KT P6SM FEW250=



000
FTUS44 KHUN 191730
TAFHSV
TAF
KHSV 191730Z 1918/2018 04012G20KT P6SM SCT250
     FM200000 08005KT P6SM SKC
     FM201400 13005KT P6SM FEW250=



000
FTUS44 KHUN 191507 AAA
TAFMSL
TAF AMD
KMSL 191507Z 1915/2012 06010KT P6SM FEW250
     FM200100 08005KT P6SM SKC=



000
FTUS44 KHUN 191507 AAA
TAFHSV
TAF AMD
KHSV 191507Z 1915/2012 04012KT P6SM SCT250
     FM200100 08005KT P6SM SKC=



000
FTUS44 KHUN 191120
TAFMSL
TAF
KMSL 191120Z 1912/2012 VRB03KT P6SM FEW250
     FM191400 05012G20KT P6SM SKC
     FM200100 08005KT P6SM SKC=



000
FTUS44 KHUN 191120
TAFHSV
TAF
KHSV 191120Z 1912/2012 VRB03KT P6SM FEW250
     FM191400 05012G20KT P6SM SKC
     FM200100 08005KT P6SM SKC=



000
FTUS44 KHUN 190527
TAFHSV
TAF
KHSV 190527Z 1906/2006 VRB03KT P6SM OVC200
     FM191400 05012G23KT P6SM SCT200
     FM200100 07006KT P6SM SKC=



000
FTUS44 KHUN 190527
TAFMSL
TAF
KMSL 190527Z 1906/2006 VRB03KT P6SM OVC200
     FM191400 05010G18KT P6SM SCT200
     FM200100 07006KT P6SM SKC=



000
FTUS44 KHUN 182320
TAFMSL
TAF
KMSL 182320Z 1900/1924 09008KT P6SM BKN160
     FM190900 03007KT P6SM SCT200
     FM191400 05010G18KT P6SM SCT200=



000
FTUS44 KHUN 182320
TAFHSV
TAF
KHSV 182320Z 1900/1924 VRB04KT P6SM BKN060
     FM190900 04006KT P6SM SCT060 BKN160
     FM191400 05012G23KT P6SM SCT200=



000
FTUS44 KHUN 181739
TAFMSL
TAF
KMSL 181739Z 1818/1918 11009KT P6SM VCSH BKN040 OVC100
     FM182000 09008KT P6SM BKN040
     FM190300 03007KT P6SM SCT060
     FM191400 05013G22KT P6SM SCT120=



000
FTUS44 KHUN 181739
TAFHSV
TAF
KHSV 181739Z 1818/1918 11009KT P6SM VCSH BKN040 OVC100
     FM182100 10008KT P6SM BKN040
     FM190400 04007KT P6SM SCT060
     FM191400 05015G25KT P6SM SCT120=



000
FTUS44 KHUN 181145
TAFHSV
TAF
KHSV 181145Z 1812/1912 11007KT P6SM BKN035 BKN080 OVC250
     FM181400 09009KT P6SM -RA BKN025 BKN040 OVC070
     FM182200 05008KT P6SM BKN035 BKN080 OVC250
     FM190400 02007KT P6SM SCT025 SCT040 BKN250=



000
FTUS44 KHUN 181145
TAFMSL
TAF
KMSL 181145Z 1812/1912 11007KT P6SM BKN035 BKN080 OVC250
     FM181400 09009KT P6SM -RA BKN025 BKN040 OVC070
     FM182000 05008KT P6SM BKN035 BKN080 OVC250
     FM190300 02007KT P6SM SCT025 SCT040 OVC250
     FM190600 35007KT P6SM SCT250=



000
FTUS44 KHUN 180520
TAFMSL
TAF
KMSL 180520Z 1806/1906 12006KT P6SM BKN035 OVC060
     FM181200 08006KT P6SM VCSH OVC040
      TEMPO 1812/1815 BKN025
     FM181500 08006KT P6SM OVC070=



000
FTUS44 KHUN 180520
TAFHSV
TAF
KHSV 180520Z 1806/1906 11008KT P6SM BKN035 OVC060
     FM181200 07008KT P6SM VCSH OVC040
      TEMPO 1813/1816 BKN025
     FM181600 07006KT P6SM OVC070=



000
FTUS44 KHUN 172320
TAFHSV
TAF
KHSV 172320Z 1800/1824 13006KT P6SM BKN060 BKN150
     FM180400 11008KT P6SM BKN035 OVC060
     FM181800 07008KT P6SM OVC050=



000
FTUS44 KHUN 172320
TAFMSL
TAF
KMSL 172320Z 1800/1824 11006KT P6SM BKN060 BKN150
     FM180500 12006KT P6SM BKN035 OVC060
     FM181800 06006KT P6SM OVC050=



000
FTUS44 KHUN 171720
TAFMSL
TAF
KMSL 171720Z 1718/1818 14010KT P6SM SCT035 BKN250
     FM180000 13006KT P6SM BKN035 BKN150
     FM181200 09006KT P6SM OVC030=



000
FTUS44 KHUN 171720
TAFHSV
TAF
KHSV 171720Z 1718/1818 14012KT P6SM SCT035 BKN250
     FM180000 13006KT P6SM BKN035 BKN150
     FM181200 10006KT P6SM OVC030=



    US Dept of Commerce
    National Oceanic and Atmospheric Administration
    National Weather Service
    1325 East West Highway
    Silver Spring, MD 20910
    Page Author: NWS Internet Services Team
Disclaimer
Information Quality
Credits
Glossary
Privacy Policy
Freedom of Information Act (FOIA)
About Us
Career Opportunities